sensor_id;sensor_type;location;lat;lon;timestamp;P1;durP1;ratioP1;P2;durP2;ratioP2
17852;SDS011;9052;53.494;14.376;2023-02-02T00:00:16;21.83;;;3.00;;
17852;SDS011;9052;53.494;14.376;2023-02-02T00:02:43;12.93;;;2.90;;
17852;SDS011;9052;53.494;14.376;2023-02-02T00:05:09;11.23;;;3.37;;
17852;SDS011;9052;53.494;14.376;2023-02-02T00:07:36;20.53;;;3.37;;
17852;SDS011;9052;53.494;14.376;2023-02-02T00:10:03;22.57;;;3.10;;
17852;SDS011;9052;53.494;14.376;2023-02-02T00:12:30;10.20;;;3.17;;
17852;SDS011;9052;53.494;14.376;2023-02-02T00:14:58;16.17;;;3.80;;
17852;SDS011;9052;53.494;14.376;2023-02-02T00:17:25;18.50;;;3.77;;
17852;SDS011;9052;53.494;14.376;2023-02-02T00:19:51;11.47;;;2.20;;
17852;SDS011;9052;53.494;14.376;2023-02-02T00:22:18;16.63;;;2.83;;
17852;SDS011;9052;53.494;14.376;2023-02-02T00:24:45;20.67;;;3.07;;
17852;SDS011;9052;53.494;14.376;2023-02-02T00:27:11;13.67;;;2.40;;
17852;SDS011;9052;53.494;14.376;2023-02-02T00:29:38;17.17;;;3.30;;
17852;SDS011;9052;53.494;14.376;2023-02-02T00:32:06;10.97;;;2.30;;
17852;SDS011;9052;53.494;14.376;2023-02-02T00:34:33;10.60;;;2.20;;
17852;SDS011;9052;53.494;14.376;2023-02-02T00:37:00;10.43;;;2.30;;
17852;SDS011;9052;53.494;14.376;2023-02-02T00:39:26;18.07;;;3.00;;
17852;SDS011;9052;53.494;14.376;2023-02-02T00:41:53;17.53;;;4.70;;
17852;SDS011;9052;53.494;14.376;2023-02-02T00:44:20;16.40;;;3.47;;
17852;SDS011;9052;53.494;14.376;2023-02-02T00:47:04;40.17;;;4.07;;
17852;SDS011;9052;53.494;14.376;2023-02-02T00:49:32;13.03;;;2.60;;
17852;SDS011;9052;53.494;14.376;2023-02-02T00:51:59;7.03;;;2.57;;
17852;SDS011;9052;53.494;14.376;2023-02-02T00:54:26;9.33;;;2.13;;
17852;SDS011;9052;53.494;14.376;2023-02-02T00:56:52;14.73;;;2.47;;
17852;SDS011;9052;53.494;14.376;2023-02-02T00:59:19;10.90;;;2.63;;
17852;SDS011;9052;53.494;14.376;2023-02-02T01:01:46;9.60;;;2.20;;
17852;SDS011;9052;53.494;14.376;2023-02-02T01:04:13;19.07;;;2.53;;
17852;SDS011;9052;53.494;14.376;2023-02-02T01:06:41;15.23;;;2.47;;
17852;SDS011;9052;53.494;14.376;2023-02-02T01:09:07;14.40;;;3.10;;
17852;SDS011;9052;53.494;14.376;2023-02-02T01:11:34;18.63;;;2.10;;
17852;SDS011;9052;53.494;14.376;2023-02-02T01:14:01;14.63;;;1.60;;
17852;SDS011;9052;53.494;14.376;2023-02-02T01:16:28;11.27;;;2.50;;
17852;SDS011;9052;53.494;14.376;2023-02-02T01:18:54;16.37;;;2.27;;
17852;SDS011;9052;53.494;14.376;2023-02-02T01:21:21;5.23;;;2.00;;
17852;SDS011;9052;53.494;14.376;2023-02-02T01:23:49;5.17;;;1.53;;
17852;SDS011;9052;53.494;14.376;2023-02-02T01:26:16;4.33;;;1.20;;
17852;SDS011;9052;53.494;14.376;2023-02-02T01:28:43;8.30;;;1.90;;
17852;SDS011;9052;53.494;14.376;2023-02-02T01:33:46;9.97;;;1.50;;
17852;SDS011;9052;53.494;14.376;2023-02-02T01:36:18;5.37;;;1.10;;
17852;SDS011;9052;53.494;14.376;2023-02-02T01:38:46;7.87;;;1.57;;
17852;SDS011;9052;53.494;14.376;2023-02-02T01:41:16;4.57;;;1.03;;
17852;SDS011;9052;53.494;14.376;2023-02-02T01:43:57;3.10;;;0.90;;
17852;SDS011;9052;53.494;14.376;2023-02-02T01:46:25;8.23;;;1.10;;
17852;SDS011;9052;53.494;14.376;2023-02-02T01:48:54;3.40;;;1.10;;
17852;SDS011;9052;53.494;14.376;2023-02-02T01:51:26;6.97;;;1.30;;
17852;SDS011;9052;53.494;14.376;2023-02-02T01:53:55;10.97;;;1.00;;
17852;SDS011;9052;53.494;14.376;2023-02-02T01:56:25;5.00;;;0.87;;
17852;SDS011;9052;53.494;14.376;2023-02-02T01:58:55;5.00;;;1.10;;
17852;SDS011;9052;53.494;14.376;2023-02-02T02:01:23;14.30;;;1.13;;
17852;SDS011;9052;53.494;14.376;2023-02-02T02:03:50;3.07;;;1.33;;
17852;SDS011;9052;53.494;14.376;2023-02-02T02:06:17;0.50;;;0.50;;
17852;SDS011;9052;53.494;14.376;2023-02-02T02:08:46;3.53;;;0.90;;
17852;SDS011;9052;53.494;14.376;2023-02-02T02:11:16;3.70;;;1.07;;
17852;SDS011;9052;53.494;14.376;2023-02-02T02:13:44;10.97;;;1.43;;
17852;SDS011;9052;53.494;14.376;2023-02-02T02:16:38;5.50;;;1.03;;
17852;SDS011;9052;53.494;14.376;2023-02-02T02:19:14;2.83;;;0.70;;
17852;SDS011;9052;53.494;14.376;2023-02-02T02:21:59;3.23;;;1.00;;
17852;SDS011;9052;53.494;14.376;2023-02-02T02:34:10;3.30;;;1.30;;
17852;SDS011;9052;53.494;14.376;2023-02-02T02:36:42;8.97;;;1.47;;
17852;SDS011;9052;53.494;14.376;2023-02-02T02:39:14;3.20;;;1.07;;
17852;SDS011;9052;53.494;14.376;2023-02-02T02:41:44;2.27;;;1.40;;
17852;SDS011;9052;53.494;14.376;2023-02-02T02:44:14;6.33;;;1.87;;
17852;SDS011;9052;53.494;14.376;2023-02-02T02:46:41;4.77;;;1.23;;
17852;SDS011;9052;53.494;14.376;2023-02-02T02:49:10;4.07;;;1.13;;
17852;SDS011;9052;53.494;14.376;2023-02-02T02:51:39;17.73;;;1.97;;
17852;SDS011;9052;53.494;14.376;2023-02-02T02:54:08;4.07;;;1.43;;
17852;SDS011;9052;53.494;14.376;2023-02-02T02:56:37;13.03;;;2.00;;
17852;SDS011;9052;53.494;14.376;2023-02-02T02:59:10;6.80;;;2.10;;
17852;SDS011;9052;53.494;14.376;2023-02-02T03:01:44;11.90;;;1.40;;
17852;SDS011;9052;53.494;14.376;2023-02-02T03:04:17;12.10;;;3.07;;
17852;SDS011;9052;53.494;14.376;2023-02-02T03:06:49;2.07;;;1.70;;
17852;SDS011;9052;53.494;14.376;2023-02-02T03:09:18;4.43;;;2.33;;
17852;SDS011;9052;53.494;14.376;2023-02-02T03:11:47;11.73;;;1.83;;
17852;SDS011;9052;53.494;14.376;2023-02-02T03:14:13;7.57;;;1.97;;
17852;SDS011;9052;53.494;14.376;2023-02-02T03:16:40;6.83;;;2.07;;
17852;SDS011;9052;53.494;14.376;2023-02-02T03:19:07;11.23;;;1.97;;
17852;SDS011;9052;53.494;14.376;2023-02-02T03:21:35;8.90;;;1.83;;
17852;SDS011;9052;53.494;14.376;2023-02-02T03:24:02;6.43;;;2.27;;
17852;SDS011;9052;53.494;14.376;2023-02-02T03:26:28;12.40;;;2.40;;
17852;SDS011;9052;53.494;14.376;2023-02-02T03:28:55;20.90;;;2.70;;
17852;SDS011;9052;53.494;14.376;2023-02-02T03:31:23;16.73;;;2.73;;
17852;SDS011;9052;53.494;14.376;2023-02-02T03:33:51;12.93;;;2.80;;
17852;SDS011;9052;53.494;14.376;2023-02-02T03:36:18;15.73;;;3.13;;
17852;SDS011;9052;53.494;14.376;2023-02-02T03:38:46;12.20;;;2.17;;
17852;SDS011;9052;53.494;14.376;2023-02-02T03:41:13;18.83;;;2.70;;
17852;SDS011;9052;53.494;14.376;2023-02-02T03:43:40;8.20;;;1.83;;
17852;SDS011;9052;53.494;14.376;2023-02-02T03:46:06;14.07;;;2.20;;
17852;SDS011;9052;53.494;14.376;2023-02-02T03:48:34;7.37;;;2.33;;
17852;SDS011;9052;53.494;14.376;2023-02-02T03:51:04;10.90;;;2.60;;
17852;SDS011;9052;53.494;14.376;2023-02-02T03:53:31;10.33;;;2.33;;
17852;SDS011;9052;53.494;14.376;2023-02-02T03:55:59;17.80;;;3.00;;
17852;SDS011;9052;53.494;14.376;2023-02-02T03:58:26;10.93;;;1.70;;
17852;SDS011;9052;53.494;14.376;2023-02-02T04:00:52;12.57;;;3.07;;
17852;SDS011;9052;53.494;14.376;2023-02-02T04:03:20;8.47;;;2.73;;
17852;SDS011;9052;53.494;14.376;2023-02-02T04:05:48;18.53;;;2.50;;
17852;SDS011;9052;53.494;14.376;2023-02-02T04:08:15;13.97;;;2.07;;
17852;SDS011;9052;53.494;14.376;2023-02-02T04:10:41;7.40;;;2.43;;
17852;SDS011;9052;53.494;14.376;2023-02-02T04:13:09;12.10;;;2.67;;
17852;SDS011;9052;53.494;14.376;2023-02-02T04:15:36;9.40;;;2.33;;
17852;SDS011;9052;53.494;14.376;2023-02-02T04:18:03;2.67;;;2.00;;
17852;SDS011;9052;53.494;14.376;2023-02-02T04:20:29;7.03;;;1.63;;
17852;SDS011;9052;53.494;14.376;2023-02-02T04:22:56;13.50;;;2.80;;
17852;SDS011;9052;53.494;14.376;2023-02-02T04:25:22;11.93;;;2.67;;
17852;SDS011;9052;53.494;14.376;2023-02-02T04:27:49;11.03;;;2.00;;
17852;SDS011;9052;53.494;14.376;2023-02-02T04:30:17;3.83;;;1.33;;
17852;SDS011;9052;53.494;14.376;2023-02-02T04:32:45;9.80;;;1.50;;
17852;SDS011;9052;53.494;14.376;2023-02-02T04:35:11;7.80;;;1.80;;
17852;SDS011;9052;53.494;14.376;2023-02-02T04:37:38;5.20;;;1.60;;
17852;SDS011;9052;53.494;14.376;2023-02-02T04:40:05;6.30;;;1.40;;
17852;SDS011;9052;53.494;14.376;2023-02-02T04:42:32;10.40;;;2.23;;
17852;SDS011;9052;53.494;14.376;2023-02-02T04:44:59;11.80;;;1.80;;
17852;SDS011;9052;53.494;14.376;2023-02-02T04:47:27;11.13;;;1.97;;
17852;SDS011;9052;53.494;14.376;2023-02-02T04:49:53;12.67;;;1.97;;
17852;SDS011;9052;53.494;14.376;2023-02-02T04:52:20;7.50;;;1.20;;
17852;SDS011;9052;53.494;14.376;2023-02-02T04:54:47;9.33;;;1.10;;
17852;SDS011;9052;53.494;14.376;2023-02-02T04:57:13;1.80;;;0.67;;
17852;SDS011;9052;53.494;14.376;2023-02-02T04:59:41;8.90;;;1.43;;
17852;SDS011;9052;53.494;14.376;2023-02-02T05:02:08;8.40;;;1.50;;
17852;SDS011;9052;53.494;14.376;2023-02-02T05:04:36;13.90;;;0.87;;
17852;SDS011;9052;53.494;14.376;2023-02-02T05:07:02;5.27;;;1.00;;
17852;SDS011;9052;53.494;14.376;2023-02-02T05:09:29;6.30;;;1.57;;
17852;SDS011;9052;53.494;14.376;2023-02-02T05:11:56;10.10;;;1.20;;
17852;SDS011;9052;53.494;14.376;2023-02-02T05:14:22;4.20;;;1.57;;
17852;SDS011;9052;53.494;14.376;2023-02-02T05:16:49;1.93;;;1.00;;
17852;SDS011;9052;53.494;14.376;2023-02-02T05:19:16;6.00;;;2.00;;
17852;SDS011;9052;53.494;14.376;2023-02-02T05:21:44;3.40;;;1.30;;
17852;SDS011;9052;53.494;14.376;2023-02-02T05:24:13;8.67;;;0.90;;
17852;SDS011;9052;53.494;14.376;2023-02-02T05:26:39;4.83;;;0.90;;
17852;SDS011;9052;53.494;14.376;2023-02-02T05:29:06;4.27;;;1.50;;
17852;SDS011;9052;53.494;14.376;2023-02-02T05:31:33;4.30;;;1.27;;
17852;SDS011;9052;53.494;14.376;2023-02-02T05:34:00;3.73;;;1.20;;
17852;SDS011;9052;53.494;14.376;2023-02-02T05:36:27;10.93;;;1.37;;
17852;SDS011;9052;53.494;14.376;2023-02-02T05:38:55;5.23;;;1.60;;
17852;SDS011;9052;53.494;14.376;2023-02-02T05:41:21;9.23;;;1.53;;
17852;SDS011;9052;53.494;14.376;2023-02-02T05:43:48;6.80;;;1.37;;
17852;SDS011;9052;53.494;14.376;2023-02-02T05:46:14;4.60;;;1.17;;
17852;SDS011;9052;53.494;14.376;2023-02-02T05:48:41;4.67;;;1.43;;
17852;SDS011;9052;53.494;14.376;2023-02-02T05:51:09;3.47;;;1.20;;
17852;SDS011;9052;53.494;14.376;2023-02-02T05:53:37;6.27;;;1.37;;
17852;SDS011;9052;53.494;14.376;2023-02-02T05:56:06;5.10;;;1.40;;
17852;SDS011;9052;53.494;14.376;2023-02-02T05:58:32;4.17;;;1.43;;
17852;SDS011;9052;53.494;14.376;2023-02-02T06:00:59;5.80;;;1.33;;
17852;SDS011;9052;53.494;14.376;2023-02-02T06:03:26;5.90;;;1.17;;
17852;SDS011;9052;53.494;14.376;2023-02-02T06:05:52;11.63;;;1.23;;
17852;SDS011;9052;53.494;14.376;2023-02-02T06:08:19;1.80;;;1.07;;
17852;SDS011;9052;53.494;14.376;2023-02-02T06:10:45;2.73;;;0.63;;
17852;SDS011;9052;53.494;14.376;2023-02-02T06:13:13;3.40;;;1.90;;
17852;SDS011;9052;53.494;14.376;2023-02-02T06:15:40;5.10;;;1.37;;
17852;SDS011;9052;53.494;14.376;2023-02-02T06:18:07;3.37;;;1.60;;
17852;SDS011;9052;53.494;14.376;2023-02-02T06:20:34;4.10;;;1.40;;
17852;SDS011;9052;53.494;14.376;2023-02-02T06:23:00;5.60;;;1.33;;
17852;SDS011;9052;53.494;14.376;2023-02-02T06:25:27;4.53;;;1.40;;
17852;SDS011;9052;53.494;14.376;2023-02-02T06:27:54;6.47;;;2.00;;
17852;SDS011;9052;53.494;14.376;2023-02-02T06:30:22;10.23;;;1.23;;
17852;SDS011;9052;53.494;14.376;2023-02-02T06:32:49;6.63;;;1.70;;
17852;SDS011;9052;53.494;14.376;2023-02-02T06:35:16;6.70;;;1.60;;
17852;SDS011;9052;53.494;14.376;2023-02-02T06:37:42;2.50;;;1.70;;
17852;SDS011;9052;53.494;14.376;2023-02-02T06:40:09;1.80;;;1.30;;
17852;SDS011;9052;53.494;14.376;2023-02-02T06:42:37;6.03;;;2.30;;
17852;SDS011;9052;53.494;14.376;2023-02-02T06:45:04;3.63;;;1.50;;
17852;SDS011;9052;53.494;14.376;2023-02-02T06:47:33;2.70;;;1.27;;
17852;SDS011;9052;53.494;14.376;2023-02-02T06:49:59;14.93;;;2.13;;
17852;SDS011;9052;53.494;14.376;2023-02-02T06:52:26;3.60;;;1.50;;
17852;SDS011;9052;53.494;14.376;2023-02-02T06:54:53;7.63;;;1.73;;
17852;SDS011;9052;53.494;14.376;2023-02-02T06:57:21;11.47;;;3.10;;
17852;SDS011;9052;53.494;14.376;2023-02-02T06:59:47;5.80;;;2.13;;
17852;SDS011;9052;53.494;14.376;2023-02-02T07:02:15;6.50;;;2.37;;
17852;SDS011;9052;53.494;14.376;2023-02-02T07:04:43;17.23;;;3.07;;
17852;SDS011;9052;53.494;14.376;2023-02-02T07:07:09;16.77;;;1.80;;
17852;SDS011;9052;53.494;14.376;2023-02-02T07:09:36;8.67;;;1.83;;
17852;SDS011;9052;53.494;14.376;2023-02-02T07:12:02;13.53;;;1.70;;
17852;SDS011;9052;53.494;14.376;2023-02-02T07:14:29;8.90;;;2.20;;
17852;SDS011;9052;53.494;14.376;2023-02-02T07:16:56;6.50;;;1.67;;
17852;SDS011;9052;53.494;14.376;2023-02-02T07:19:22;18.33;;;2.17;;
17852;SDS011;9052;53.494;14.376;2023-02-02T07:21:50;3.27;;;1.37;;
17852;SDS011;9052;53.494;14.376;2023-02-02T07:24:17;6.17;;;1.87;;
17852;SDS011;9052;53.494;14.376;2023-02-02T07:26:44;2.93;;;1.70;;
17852;SDS011;9052;53.494;14.376;2023-02-02T07:29:10;5.93;;;2.10;;
17852;SDS011;9052;53.494;14.376;2023-02-02T07:31:38;12.67;;;2.50;;
17852;SDS011;9052;53.494;14.376;2023-02-02T07:34:04;11.20;;;1.70;;
17852;SDS011;9052;53.494;14.376;2023-02-02T07:36:31;8.73;;;2.10;;
17852;SDS011;9052;53.494;14.376;2023-02-02T07:38:59;4.90;;;1.87;;
17852;SDS011;9052;53.494;14.376;2023-02-02T07:41:28;12.23;;;2.17;;
17852;SDS011;9052;53.494;14.376;2023-02-02T07:43:55;9.97;;;2.37;;
17852;SDS011;9052;53.494;14.376;2023-02-02T07:46:21;6.77;;;2.30;;
17852;SDS011;9052;53.494;14.376;2023-02-02T07:48:48;8.33;;;1.90;;
17852;SDS011;9052;53.494;14.376;2023-02-02T07:51:18;1.10;;;1.00;;
17852;SDS011;9052;53.494;14.376;2023-02-02T07:53:45;6.40;;;1.37;;
17852;SDS011;9052;53.494;14.376;2023-02-02T07:56:14;4.57;;;1.10;;
17852;SDS011;9052;53.494;14.376;2023-02-02T07:58:41;2.77;;;1.30;;
17852;SDS011;9052;53.494;14.376;2023-02-02T08:01:10;14.20;;;1.83;;
17852;SDS011;9052;53.494;14.376;2023-02-02T08:03:37;4.23;;;2.00;;
17852;SDS011;9052;53.494;14.376;2023-02-02T08:06:08;5.50;;;1.57;;
17852;SDS011;9052;53.494;14.376;2023-02-02T08:08:36;16.10;;;1.87;;
17852;SDS011;9052;53.494;14.376;2023-02-02T08:11:03;3.00;;;1.10;;
17852;SDS011;9052;53.494;14.376;2023-02-02T08:13:31;6.80;;;1.73;;
17852;SDS011;9052;53.494;14.376;2023-02-02T08:15:58;2.47;;;0.77;;
17852;SDS011;9052;53.494;14.376;2023-02-02T08:18:24;14.43;;;1.87;;
17852;SDS011;9052;53.494;14.376;2023-02-02T08:20:51;2.60;;;1.37;;
17852;SDS011;9052;53.494;14.376;2023-02-02T08:23:17;3.20;;;0.70;;
17852;SDS011;9052;53.494;14.376;2023-02-02T08:25:47;10.13;;;1.50;;
17852;SDS011;9052;53.494;14.376;2023-02-02T08:28:14;3.70;;;0.80;;
17852;SDS011;9052;53.494;14.376;2023-02-02T08:30:45;1.80;;;0.80;;
17852;SDS011;9052;53.494;14.376;2023-02-02T08:33:12;4.60;;;1.20;;
17852;SDS011;9052;53.494;14.376;2023-02-02T08:35:39;9.20;;;1.33;;
17852;SDS011;9052;53.494;14.376;2023-02-02T08:38:15;5.20;;;1.23;;
17852;SDS011;9052;53.494;14.376;2023-02-02T08:40:41;2.27;;;0.93;;
17852;SDS011;9052;53.494;14.376;2023-02-02T08:43:08;1.77;;;0.90;;
17852;SDS011;9052;53.494;14.376;2023-02-02T08:45:35;6.33;;;1.53;;
17852;SDS011;9052;53.494;14.376;2023-02-02T08:48:01;9.80;;;1.90;;
17852;SDS011;9052;53.494;14.376;2023-02-02T08:50:28;1.83;;;1.73;;
17852;SDS011;9052;53.494;14.376;2023-02-02T08:52:55;4.90;;;1.27;;
17852;SDS011;9052;53.494;14.376;2023-02-02T08:55:23;2.40;;;1.00;;
17852;SDS011;9052;53.494;14.376;2023-02-02T08:57:49;1.53;;;1.23;;
17852;SDS011;9052;53.494;14.376;2023-02-02T09:00:17;4.50;;;1.43;;
17852;SDS011;9052;53.494;14.376;2023-02-02T09:02:44;6.47;;;1.60;;
17852;SDS011;9052;53.494;14.376;2023-02-02T09:05:11;4.77;;;1.10;;
17852;SDS011;9052;53.494;14.376;2023-02-02T09:07:37;5.73;;;1.00;;
17852;SDS011;9052;53.494;14.376;2023-02-02T09:10:04;1.03;;;1.00;;
17852;SDS011;9052;53.494;14.376;2023-02-02T09:12:32;0.97;;;0.60;;
17852;SDS011;9052;53.494;14.376;2023-02-02T09:14:59;4.00;;;1.00;;
17852;SDS011;9052;53.494;14.376;2023-02-02T09:17:26;8.87;;;0.77;;
17852;SDS011;9052;53.494;14.376;2023-02-02T09:19:53;8.27;;;1.57;;
17852;SDS011;9052;53.494;14.376;2023-02-02T09:22:20;2.83;;;1.23;;
17852;SDS011;9052;53.494;14.376;2023-02-02T09:24:47;2.83;;;1.27;;
17852;SDS011;9052;53.494;14.376;2023-02-02T09:27:14;4.10;;;0.60;;
17852;SDS011;9052;53.494;14.376;2023-02-02T09:29:42;1.17;;;0.57;;
17852;SDS011;9052;53.494;14.376;2023-02-02T09:32:08;0.80;;;0.50;;
17852;SDS011;9052;53.494;14.376;2023-02-02T09:34:35;0.97;;;0.57;;
17852;SDS011;9052;53.494;14.376;2023-02-02T09:37:02;1.23;;;0.50;;
17852;SDS011;9052;53.494;14.376;2023-02-02T09:39:28;2.10;;;0.50;;
17852;SDS011;9052;53.494;14.376;2023-02-02T09:42:02;2.97;;;0.50;;
17852;SDS011;9052;53.494;14.376;2023-02-02T09:44:59;3.23;;;0.70;;
17852;SDS011;9052;53.494;14.376;2023-02-02T09:47:36;2.03;;;0.50;;
17852;SDS011;9052;53.494;14.376;2023-02-02T09:50:13;0.67;;;0.50;;
17852;SDS011;9052;53.494;14.376;2023-02-02T09:52:43;0.50;;;0.50;;
17852;SDS011;9052;53.494;14.376;2023-02-02T09:55:12;3.23;;;0.60;;
17852;SDS011;9052;53.494;14.376;2023-02-02T09:57:43;1.50;;;0.90;;
17852;SDS011;9052;53.494;14.376;2023-02-02T10:00:22;1.30;;;0.47;;
17852;SDS011;9052;53.494;14.376;2023-02-02T10:02:54;2.77;;;0.90;;
17852;SDS011;9052;53.494;14.376;2023-02-02T10:05:25;0.77;;;0.43;;
17852;SDS011;9052;53.494;14.376;2023-02-02T10:08:01;5.40;;;0.80;;
17852;SDS011;9052;53.494;14.376;2023-02-02T10:10:31;1.13;;;0.50;;
17852;SDS011;9052;53.494;14.376;2023-02-02T10:13:00;8.60;;;0.90;;
17852;SDS011;9052;53.494;14.376;2023-02-02T10:15:34;2.40;;;0.57;;
17852;SDS011;9052;53.494;14.376;2023-02-02T10:18:07;0.70;;;0.57;;
17852;SDS011;9052;53.494;14.376;2023-02-02T10:20:38;1.07;;;0.57;;
17852;SDS011;9052;53.494;14.376;2023-02-02T10:23:12;1.13;;;0.50;;
17852;SDS011;9052;53.494;14.376;2023-02-02T10:25:49;2.40;;;0.73;;
17852;SDS011;9052;53.494;14.376;2023-02-02T10:28:22;0.57;;;0.40;;
17852;SDS011;9052;53.494;14.376;2023-02-02T10:30:57;0.77;;;0.70;;
17852;SDS011;9052;53.494;14.376;2023-02-02T10:33:29;1.30;;;0.63;;
17852;SDS011;9052;53.494;14.376;2023-02-02T10:36:01;1.70;;;0.60;;
17852;SDS011;9052;53.494;14.376;2023-02-02T10:38:34;1.37;;;0.30;;
17852;SDS011;9052;53.494;14.376;2023-02-02T10:41:05;0.80;;;0.73;;
17852;SDS011;9052;53.494;14.376;2023-02-02T10:43:46;2.90;;;0.60;;
17852;SDS011;9052;53.494;14.376;2023-02-02T10:46:26;0.60;;;0.30;;
17852;SDS011;9052;53.494;14.376;2023-02-02T10:48:59;0.53;;;0.47;;
17852;SDS011;9052;53.494;14.376;2023-02-02T10:51:36;0.90;;;0.40;;
17852;SDS011;9052;53.494;14.376;2023-02-02T10:54:06;3.10;;;0.60;;
17852;SDS011;9052;53.494;14.376;2023-02-02T10:56:41;3.90;;;0.47;;
17852;SDS011;9052;53.494;14.376;2023-02-02T10:59:12;2.53;;;0.90;;
17852;SDS011;9052;53.494;14.376;2023-02-02T11:01:42;0.67;;;0.47;;
17852;SDS011;9052;53.494;14.376;2023-02-02T11:04:08;2.07;;;1.30;;
17852;SDS011;9052;53.494;14.376;2023-02-02T11:06:53;0.87;;;0.40;;
17852;SDS011;9052;53.494;14.376;2023-02-02T11:09:21;0.47;;;0.30;;
17852;SDS011;9052;53.494;14.376;2023-02-02T11:11:51;0.60;;;0.50;;
17852;SDS011;9052;53.494;14.376;2023-02-02T11:14:22;1.30;;;0.50;;
17852;SDS011;9052;53.494;14.376;2023-02-02T11:17:02;1.57;;;0.90;;
17852;SDS011;9052;53.494;14.376;2023-02-02T11:19:33;0.73;;;0.40;;
17852;SDS011;9052;53.494;14.376;2023-02-02T11:22:02;1.10;;;0.67;;
17852;SDS011;9052;53.494;14.376;2023-02-02T11:24:30;0.73;;;0.40;;
17852;SDS011;9052;53.494;14.376;2023-02-02T11:27:01;0.50;;;0.40;;
17852;SDS011;9052;53.494;14.376;2023-02-02T11:29:29;0.37;;;0.37;;
17852;SDS011;9052;53.494;14.376;2023-02-02T11:31:57;0.43;;;0.43;;
17852;SDS011;9052;53.494;14.376;2023-02-02T11:34:44;0.53;;;0.40;;
17852;SDS011;9052;53.494;14.376;2023-02-02T11:37:11;0.60;;;0.40;;
17852;SDS011;9052;53.494;14.376;2023-02-02T11:39:39;1.47;;;0.70;;
17852;SDS011;9052;53.494;14.376;2023-02-02T11:42:06;0.90;;;0.63;;
17852;SDS011;9052;53.494;14.376;2023-02-02T11:44:37;0.67;;;0.50;;
17852;SDS011;9052;53.494;14.376;2023-02-02T11:47:04;0.77;;;0.40;;
17852;SDS011;9052;53.494;14.376;2023-02-02T11:49:35;0.30;;;0.30;;
17852;SDS011;9052;53.494;14.376;2023-02-02T11:52:04;1.53;;;0.40;;
17852;SDS011;9052;53.494;14.376;2023-02-02T11:54:32;0.40;;;0.40;;
17852;SDS011;9052;53.494;14.376;2023-02-02T11:57:00;0.47;;;0.40;;
17852;SDS011;9052;53.494;14.376;2023-02-02T11:59:30;2.00;;;0.40;;
17852;SDS011;9052;53.494;14.376;2023-02-02T12:08:00;2.97;;;0.50;;
17852;SDS011;9052;53.494;14.376;2023-02-02T12:10:27;1.63;;;0.40;;
17852;SDS011;9052;53.494;14.376;2023-02-02T12:13:02;0.77;;;0.43;;
17852;SDS011;9052;53.494;14.376;2023-02-02T12:15:35;0.53;;;0.50;;
17852;SDS011;9052;53.494;14.376;2023-02-02T12:18:11;0.30;;;0.30;;
17852;SDS011;9052;53.494;14.376;2023-02-02T12:20:47;0.73;;;0.40;;
17852;SDS011;9052;53.494;14.376;2023-02-02T12:23:21;0.40;;;0.40;;
17852;SDS011;9052;53.494;14.376;2023-02-02T12:25:57;0.57;;;0.40;;
17852;SDS011;9052;53.494;14.376;2023-02-02T12:28:34;3.07;;;0.40;;
17852;SDS011;9052;53.494;14.376;2023-02-02T12:31:09;0.40;;;0.30;;
17852;SDS011;9052;53.494;14.376;2023-02-02T12:33:42;0.57;;;0.40;;
17852;SDS011;9052;53.494;14.376;2023-02-02T12:39:15;1.80;;;0.90;;
17852;SDS011;9052;53.494;14.376;2023-02-02T12:44:49;0.77;;;0.70;;
17852;SDS011;9052;53.494;14.376;2023-02-02T12:47:23;0.60;;;0.30;;
17852;SDS011;9052;53.494;14.376;2023-02-02T12:49:57;0.77;;;0.70;;
17852;SDS011;9052;53.494;14.376;2023-02-02T12:52:35;0.53;;;0.50;;
17852;SDS011;9052;53.494;14.376;2023-02-02T12:55:16;0.30;;;0.30;;
17852;SDS011;9052;53.494;14.376;2023-02-02T12:57:49;1.20;;;0.60;;
17852;SDS011;9052;53.494;14.376;2023-02-02T13:00:23;0.73;;;0.50;;
17852;SDS011;9052;53.494;14.376;2023-02-02T13:03:00;3.40;;;0.40;;
17852;SDS011;9052;53.494;14.376;2023-02-02T13:05:41;0.47;;;0.30;;
17852;SDS011;9052;53.494;14.376;2023-02-02T13:08:15;1.27;;;0.30;;
17852;SDS011;9052;53.494;14.376;2023-02-02T13:10:45;0.50;;;0.37;;
17852;SDS011;9052;53.494;14.376;2023-02-02T13:13:13;0.50;;;0.40;;
17852;SDS011;9052;53.494;14.376;2023-02-02T13:15:43;0.30;;;0.30;;
17852;SDS011;9052;53.494;14.376;2023-02-02T13:18:12;1.87;;;0.57;;
17852;SDS011;9052;53.494;14.376;2023-02-02T13:20:42;0.30;;;0.30;;
17852;SDS011;9052;53.494;14.376;2023-02-02T13:23:12;0.40;;;0.40;;
17852;SDS011;9052;53.494;14.376;2023-02-02T13:25:43;4.43;;;0.40;;
17852;SDS011;9052;53.494;14.376;2023-02-02T13:28:16;0.80;;;0.50;;
17852;SDS011;9052;53.494;14.376;2023-02-02T13:30:47;1.03;;;0.60;;
17852;SDS011;9052;53.494;14.376;2023-02-02T13:33:16;3.27;;;0.50;;
17852;SDS011;9052;53.494;14.376;2023-02-02T13:35:48;0.60;;;0.60;;
17852;SDS011;9052;53.494;14.376;2023-02-02T13:38:18;0.47;;;0.47;;
17852;SDS011;9052;53.494;14.376;2023-02-02T13:40:47;1.10;;;0.40;;
17852;SDS011;9052;53.494;14.376;2023-02-02T13:43:17;0.70;;;0.67;;
17852;SDS011;9052;53.494;14.376;2023-02-02T13:45:53;0.90;;;0.67;;
17852;SDS011;9052;53.494;14.376;2023-02-02T13:48:29;0.30;;;0.30;;
17852;SDS011;9052;53.494;14.376;2023-02-02T13:51:05;0.30;;;0.30;;
17852;SDS011;9052;53.494;14.376;2023-02-02T13:53:53;0.40;;;0.40;;
17852;SDS011;9052;53.494;14.376;2023-02-02T13:56:36;0.57;;;0.40;;
17852;SDS011;9052;53.494;14.376;2023-02-02T13:59:18;0.63;;;0.50;;
17852;SDS011;9052;53.494;14.376;2023-02-02T14:02:01;0.77;;;0.77;;
17852;SDS011;9052;53.494;14.376;2023-02-02T14:04:31;0.40;;;0.40;;
17852;SDS011;9052;53.494;14.376;2023-02-02T14:07:01;1.70;;;0.87;;
17852;SDS011;9052;53.494;14.376;2023-02-02T14:09:32;1.47;;;0.97;;
17852;SDS011;9052;53.494;14.376;2023-02-02T14:12:01;1.30;;;1.20;;
17852;SDS011;9052;53.494;14.376;2023-02-02T14:14:31;1.20;;;1.10;;
17852;SDS011;9052;53.494;14.376;2023-02-02T14:17:00;1.70;;;1.27;;
17852;SDS011;9052;53.494;14.376;2023-02-02T14:19:47;1.20;;;1.13;;
17852;SDS011;9052;53.494;14.376;2023-02-02T14:22:16;0.47;;;0.47;;
17852;SDS011;9052;53.494;14.376;2023-02-02T14:24:59;0.53;;;0.40;;
17852;SDS011;9052;53.494;14.376;2023-02-02T14:30:26;1.00;;;1.00;;
17852;SDS011;9052;53.494;14.376;2023-02-02T14:36:01;0.40;;;0.37;;
17852;SDS011;9052;53.494;14.376;2023-02-02T14:38:36;0.30;;;0.30;;
17852;SDS011;9052;53.494;14.376;2023-02-02T14:41:24;0.80;;;0.60;;
17852;SDS011;9052;53.494;14.376;2023-02-02T14:44:13;1.47;;;0.57;;
17852;SDS011;9052;53.494;14.376;2023-02-02T14:46:41;0.37;;;0.37;;
17852;SDS011;9052;53.494;14.376;2023-02-02T14:49:23;0.40;;;0.40;;
17852;SDS011;9052;53.494;14.376;2023-02-02T14:51:54;0.50;;;0.40;;
17852;SDS011;9052;53.494;14.376;2023-02-02T14:54:23;1.10;;;0.60;;
17852;SDS011;9052;53.494;14.376;2023-02-02T14:56:54;0.40;;;0.40;;
17852;SDS011;9052;53.494;14.376;2023-02-02T14:59:23;0.30;;;0.30;;
17852;SDS011;9052;53.494;14.376;2023-02-02T15:01:55;1.03;;;0.40;;
17852;SDS011;9052;53.494;14.376;2023-02-02T15:04:27;0.30;;;0.30;;
17852;SDS011;9052;53.494;14.376;2023-02-02T15:06:54;2.00;;;0.70;;
17852;SDS011;9052;53.494;14.376;2023-02-02T15:09:36;0.60;;;0.40;;
17852;SDS011;9052;53.494;14.376;2023-02-02T15:12:21;0.73;;;0.47;;
17852;SDS011;9052;53.494;14.376;2023-02-02T15:17:53;0.60;;;0.43;;
17852;SDS011;9052;53.494;14.376;2023-02-02T15:20:26;1.43;;;0.77;;
17852;SDS011;9052;53.494;14.376;2023-02-02T15:22:55;0.50;;;0.50;;
17852;SDS011;9052;53.494;14.376;2023-02-02T15:25:26;0.30;;;0.30;;
17852;SDS011;9052;53.494;14.376;2023-02-02T15:27:59;0.40;;;0.40;;
17852;SDS011;9052;53.494;14.376;2023-02-02T15:30:29;1.10;;;1.00;;
17852;SDS011;9052;53.494;14.376;2023-02-02T15:32:57;1.80;;;0.53;;